sensor_id;sensor_type;location;lat;lon;timestamp;temperature;humidity
25074;DHT22;13066;52.042;5.648;2022-10-16T00:01:43;14.20;99.90
25074;DHT22;13066;52.042;5.648;2022-10-16T00:04:12;14.10;99.90
25074;DHT22;13066;52.042;5.648;2022-10-16T00:06:41;14.10;99.90
25074;DHT22;13066;52.042;5.648;2022-10-16T00:09:09;14.10;99.90
25074;DHT22;13066;52.042;5.648;2022-10-16T00:11:38;14.10;99.90
25074;DHT22;13066;52.042;5.648;2022-10-16T00:14:09;14.10;99.90
25074;DHT22;13066;52.042;5.648;2022-10-16T00:16:38;14.10;99.90
25074;DHT22;13066;52.042;5.648;2022-10-16T00:19:06;14.00;99.90
25074;DHT22;13066;52.042;5.648;2022-10-16T00:21:34;14.00;99.90
25074;DHT22;13066;52.042;5.648;2022-10-16T00:24:06;14.00;99.90
25074;DHT22;13066;52.042;5.648;2022-10-16T00:26:35;14.00;99.90
25074;DHT22;13066;52.042;5.648;2022-10-16T00:29:04;14.00;99.90
25074;DHT22;13066;52.042;5.648;2022-10-16T00:31:33;14.00;99.90
25074;DHT22;13066;52.042;5.648;2022-10-16T00:34:01;14.00;99.90
25074;DHT22;13066;52.042;5.648;2022-10-16T00:36:29;14.00;99.90
25074;DHT22;13066;52.042;5.648;2022-10-16T00:38:58;14.00;99.90
25074;DHT22;13066;52.042;5.648;2022-10-16T00:41:33;14.00;99.90
25074;DHT22;13066;52.042;5.648;2022-10-16T00:44:03;14.00;99.90
25074;DHT22;13066;52.042;5.648;2022-10-16T00:46:36;14.00;99.90
25074;DHT22;13066;52.042;5.648;2022-10-16T00:49:08;14.00;99.90
25074;DHT22;13066;52.042;5.648;2022-10-16T00:51:39;14.00;99.90
25074;DHT22;13066;52.042;5.648;2022-10-16T00:54:10;14.00;99.90
25074;DHT22;13066;52.042;5.648;2022-10-16T00:56:40;14.00;99.90
25074;DHT22;13066;52.042;5.648;2022-10-16T00:59:14;14.00;99.90
25074;DHT22;13066;52.042;5.648;2022-10-16T01:01:42;14.00;99.90
25074;DHT22;13066;52.042;5.648;2022-10-16T01:04:11;14.00;99.90
25074;DHT22;13066;52.042;5.648;2022-10-16T01:06:46;14.00;99.90
25074;DHT22;13066;52.042;5.648;2022-10-16T01:09:18;14.00;99.90
25074;DHT22;13066;52.042;5.648;2022-10-16T01:11:57;14.00;99.90
25074;DHT22;13066;52.042;5.648;2022-10-16T01:14:34;14.00;99.90
25074;DHT22;13066;52.042;5.648;2022-10-16T01:17:10;14.00;99.90
25074;DHT22;13066;52.042;5.648;2022-10-16T01:19:55;14.00;99.90
25074;DHT22;13066;52.042;5.648;2022-10-16T01:22:35;14.10;99.90
25074;DHT22;13066;52.042;5.648;2022-10-16T01:25:11;14.10;99.90
25074;DHT22;13066;52.042;5.648;2022-10-16T01:27:42;14.10;99.90
25074;DHT22;13066;52.042;5.648;2022-10-16T01:30:16;14.10;99.90
25074;DHT22;13066;52.042;5.648;2022-10-16T01:32:50;14.10;99.90
25074;DHT22;13066;52.042;5.648;2022-10-16T01:35:22;14.10;99.90
25074;DHT22;13066;52.042;5.648;2022-10-16T01:37:53;14.10;99.90
25074;DHT22;13066;52.042;5.648;2022-10-16T01:40:24;14.10;99.90
25074;DHT22;13066;52.042;5.648;2022-10-16T01:43:00;14.20;99.90
25074;DHT22;13066;52.042;5.648;2022-10-16T01:45:30;14.20;99.90
25074;DHT22;13066;52.042;5.648;2022-10-16T01:48:00;14.20;99.90
25074;DHT22;13066;52.042;5.648;2022-10-16T01:50:31;14.20;99.90
25074;DHT22;13066;52.042;5.648;2022-10-16T01:53:02;14.20;99.90
25074;DHT22;13066;52.042;5.648;2022-10-16T01:55:33;14.20;99.90
25074;DHT22;13066;52.042;5.648;2022-10-16T01:58:05;14.20;99.90
25074;DHT22;13066;52.042;5.648;2022-10-16T02:00:38;14.30;99.90
25074;DHT22;13066;52.042;5.648;2022-10-16T02:03:07;14.20;99.90
25074;DHT22;13066;52.042;5.648;2022-10-16T02:05:39;14.20;99.90
25074;DHT22;13066;52.042;5.648;2022-10-16T02:08:08;14.20;99.90
25074;DHT22;13066;52.042;5.648;2022-10-16T02:10:37;14.30;99.90
25074;DHT22;13066;52.042;5.648;2022-10-16T02:13:10;14.30;99.90
25074;DHT22;13066;52.042;5.648;2022-10-16T02:15:39;14.30;99.90
25074;DHT22;13066;52.042;5.648;2022-10-16T02:18:08;14.30;99.90
25074;DHT22;13066;52.042;5.648;2022-10-16T02:20:43;14.30;99.90
25074;DHT22;13066;52.042;5.648;2022-10-16T02:23:18;14.30;99.90
25074;DHT22;13066;52.042;5.648;2022-10-16T02:25:47;14.30;99.90
25074;DHT22;13066;52.042;5.648;2022-10-16T02:28:22;14.30;99.90
25074;DHT22;13066;52.042;5.648;2022-10-16T02:30:54;14.30;99.90
25074;DHT22;13066;52.042;5.648;2022-10-16T02:33:24;14.30;99.90
25074;DHT22;13066;52.042;5.648;2022-10-16T02:35:54;14.40;99.90
25074;DHT22;13066;52.042;5.648;2022-10-16T02:38:23;14.30;99.90
25074;DHT22;13066;52.042;5.648;2022-10-16T02:40:52;14.30;99.90
25074;DHT22;13066;52.042;5.648;2022-10-16T02:43:22;14.30;99.90
25074;DHT22;13066;52.042;5.648;2022-10-16T02:45:50;14.30;99.90
25074;DHT22;13066;52.042;5.648;2022-10-16T02:48:18;14.30;99.90
25074;DHT22;13066;52.042;5.648;2022-10-16T02:50:46;14.30;99.90
25074;DHT22;13066;52.042;5.648;2022-10-16T02:53:14;14.30;99.90
25074;DHT22;13066;52.042;5.648;2022-10-16T02:55:42;14.30;99.90
25074;DHT22;13066;52.042;5.648;2022-10-16T02:58:10;14.30;99.90
25074;DHT22;13066;52.042;5.648;2022-10-16T03:00:39;14.30;99.90
25074;DHT22;13066;52.042;5.648;2022-10-16T03:03:10;14.40;99.90
25074;DHT22;13066;52.042;5.648;2022-10-16T03:05:38;14.30;99.90
25074;DHT22;13066;52.042;5.648;2022-10-16T03:08:06;14.30;99.90
25074;DHT22;13066;52.042;5.648;2022-10-16T03:10:34;14.30;99.90
25074;DHT22;13066;52.042;5.648;2022-10-16T03:13:01;14.40;99.90
25074;DHT22;13066;52.042;5.648;2022-10-16T03:15:30;14.40;99.90
25074;DHT22;13066;52.042;5.648;2022-10-16T03:17:59;14.40;99.90
25074;DHT22;13066;52.042;5.648;2022-10-16T03:20:27;14.40;99.90
25074;DHT22;13066;52.042;5.648;2022-10-16T03:22:55;14.40;99.90
25074;DHT22;13066;52.042;5.648;2022-10-16T03:25:23;14.30;99.90
25074;DHT22;13066;52.042;5.648;2022-10-16T03:27:52;14.30;99.90
25074;DHT22;13066;52.042;5.648;2022-10-16T03:30:20;14.30;99.90
25074;DHT22;13066;52.042;5.648;2022-10-16T03:32:48;14.30;99.90
25074;DHT22;13066;52.042;5.648;2022-10-16T03:35:22;14.30;99.90
25074;DHT22;13066;52.042;5.648;2022-10-16T03:37:51;14.30;99.90
25074;DHT22;13066;52.042;5.648;2022-10-16T03:40:19;14.30;99.90
25074;DHT22;13066;52.042;5.648;2022-10-16T03:42:47;14.30;99.90
25074;DHT22;13066;52.042;5.648;2022-10-16T03:45:15;14.30;99.90
25074;DHT22;13066;52.042;5.648;2022-10-16T03:47:43;14.30;99.90
25074;DHT22;13066;52.042;5.648;2022-10-16T03:50:11;14.30;99.90
25074;DHT22;13066;52.042;5.648;2022-10-16T03:52:40;14.30;99.90
25074;DHT22;13066;52.042;5.648;2022-10-16T03:55:09;14.30;99.90
25074;DHT22;13066;52.042;5.648;2022-10-16T03:57:36;14.30;99.90
25074;DHT22;13066;52.042;5.648;2022-10-16T04:00:06;14.30;99.90
25074;DHT22;13066;52.042;5.648;2022-10-16T04:02:34;14.30;99.90
25074;DHT22;13066;52.042;5.648;2022-10-16T04:05:02;14.30;99.90
25074;DHT22;13066;52.042;5.648;2022-10-16T04:07:30;14.30;99.90
25074;DHT22;13066;52.042;5.648;2022-10-16T04:09:59;14.30;99.90
25074;DHT22;13066;52.042;5.648;2022-10-16T04:12:27;14.20;99.90
25074;DHT22;13066;52.042;5.648;2022-10-16T04:14:55;14.30;99.90
25074;DHT22;13066;52.042;5.648;2022-10-16T04:17:23;14.20;99.90
25074;DHT22;13066;52.042;5.648;2022-10-16T04:19:52;14.20;99.90
25074;DHT22;13066;52.042;5.648;2022-10-16T04:22:20;14.20;99.90
25074;DHT22;13066;52.042;5.648;2022-10-16T04:24:48;14.20;99.90
25074;DHT22;13066;52.042;5.648;2022-10-16T04:27:17;14.20;99.90
25074;DHT22;13066;52.042;5.648;2022-10-16T04:29:45;14.20;99.90
25074;DHT22;13066;52.042;5.648;2022-10-16T04:32:13;14.20;99.90
25074;DHT22;13066;52.042;5.648;2022-10-16T04:34:41;14.20;99.90
25074;DHT22;13066;52.042;5.648;2022-10-16T04:37:09;14.20;99.90
25074;DHT22;13066;52.042;5.648;2022-10-16T04:39:37;14.10;99.90
25074;DHT22;13066;52.042;5.648;2022-10-16T04:42:05;14.10;99.90
25074;DHT22;13066;52.042;5.648;2022-10-16T04:44:34;14.20;99.90
25074;DHT22;13066;52.042;5.648;2022-10-16T04:47:02;14.20;99.90
25074;DHT22;13066;52.042;5.648;2022-10-16T04:49:31;14.10;99.90
25074;DHT22;13066;52.042;5.648;2022-10-16T04:51:59;14.10;99.90
25074;DHT22;13066;52.042;5.648;2022-10-16T04:54:27;14.10;99.90
25074;DHT22;13066;52.042;5.648;2022-10-16T04:56:55;14.10;99.90
25074;DHT22;13066;52.042;5.648;2022-10-16T04:59:23;14.10;99.90
25074;DHT22;13066;52.042;5.648;2022-10-16T05:01:52;14.10;99.90
25074;DHT22;13066;52.042;5.648;2022-10-16T05:04:20;14.10;99.90
25074;DHT22;13066;52.042;5.648;2022-10-16T05:06:48;14.00;99.90
25074;DHT22;13066;52.042;5.648;2022-10-16T05:09:16;14.10;99.90
25074;DHT22;13066;52.042;5.648;2022-10-16T05:11:44;14.00;99.90
25074;DHT22;13066;52.042;5.648;2022-10-16T05:14:12;14.00;99.90
25074;DHT22;13066;52.042;5.648;2022-10-16T05:16:40;14.00;99.90
25074;DHT22;13066;52.042;5.648;2022-10-16T05:19:09;14.00;99.90
25074;DHT22;13066;52.042;5.648;2022-10-16T05:21:54;14.00;99.90
25074;DHT22;13066;52.042;5.648;2022-10-16T05:24:23;14.00;99.90
25074;DHT22;13066;52.042;5.648;2022-10-16T05:26:51;13.90;99.90
25074;DHT22;13066;52.042;5.648;2022-10-16T05:29:19;13.90;99.90
25074;DHT22;13066;52.042;5.648;2022-10-16T05:31:49;13.90;99.90
25074;DHT22;13066;52.042;5.648;2022-10-16T05:34:18;13.90;99.90
25074;DHT22;13066;52.042;5.648;2022-10-16T05:36:46;13.90;99.90
25074;DHT22;13066;52.042;5.648;2022-10-16T05:39:15;13.80;99.90
25074;DHT22;13066;52.042;5.648;2022-10-16T05:41:43;13.80;99.90
25074;DHT22;13066;52.042;5.648;2022-10-16T05:44:11;13.80;99.90
25074;DHT22;13066;52.042;5.648;2022-10-16T05:46:39;13.80;99.90
25074;DHT22;13066;52.042;5.648;2022-10-16T05:49:07;13.80;99.90
25074;DHT22;13066;52.042;5.648;2022-10-16T05:51:36;13.80;99.90
25074;DHT22;13066;52.042;5.648;2022-10-16T05:54:04;13.80;99.90
25074;DHT22;13066;52.042;5.648;2022-10-16T05:56:32;13.80;99.90
25074;DHT22;13066;52.042;5.648;2022-10-16T05:59:00;13.80;99.90
25074;DHT22;13066;52.042;5.648;2022-10-16T06:01:28;13.80;99.90
25074;DHT22;13066;52.042;5.648;2022-10-16T06:03:57;13.80;99.90
25074;DHT22;13066;52.042;5.648;2022-10-16T06:06:27;13.80;99.90
25074;DHT22;13066;52.042;5.648;2022-10-16T06:08:57;13.80;99.90
25074;DHT22;13066;52.042;5.648;2022-10-16T06:11:28;13.80;99.90
25074;DHT22;13066;52.042;5.648;2022-10-16T06:13:58;13.80;99.90
25074;DHT22;13066;52.042;5.648;2022-10-16T06:16:28;13.80;99.90
25074;DHT22;13066;52.042;5.648;2022-10-16T06:18:56;13.90;99.90
25074;DHT22;13066;52.042;5.648;2022-10-16T06:21:27;13.90;99.90
25074;DHT22;13066;52.042;5.648;2022-10-16T06:23:57;13.90;99.90
25074;DHT22;13066;52.042;5.648;2022-10-16T06:26:27;13.90;99.90
25074;DHT22;13066;52.042;5.648;2022-10-16T06:28:56;13.90;99.90
25074;DHT22;13066;52.042;5.648;2022-10-16T06:31:26;13.90;99.90
25074;DHT22;13066;52.042;5.648;2022-10-16T06:33:56;14.00;99.90
25074;DHT22;13066;52.042;5.648;2022-10-16T06:36:25;14.00;99.90
25074;DHT22;13066;52.042;5.648;2022-10-16T06:38:53;14.00;99.90
25074;DHT22;13066;52.042;5.648;2022-10-16T06:41:22;14.00;99.90
25074;DHT22;13066;52.042;5.648;2022-10-16T06:43:51;14.00;99.90
25074;DHT22;13066;52.042;5.648;2022-10-16T06:46:21;14.00;99.90
25074;DHT22;13066;52.042;5.648;2022-10-16T06:48:50;14.00;99.90
25074;DHT22;13066;52.042;5.648;2022-10-16T06:51:19;14.00;99.90
25074;DHT22;13066;52.042;5.648;2022-10-16T06:53:48;14.00;99.90
25074;DHT22;13066;52.042;5.648;2022-10-16T06:56:34;14.10;99.90
25074;DHT22;13066;52.042;5.648;2022-10-16T06:59:02;14.10;99.90
25074;DHT22;13066;52.042;5.648;2022-10-16T07:01:31;14.10;99.90
25074;DHT22;13066;52.042;5.648;2022-10-16T07:03:59;14.10;99.90
25074;DHT22;13066;52.042;5.648;2022-10-16T07:06:31;14.10;99.90
25074;DHT22;13066;52.042;5.648;2022-10-16T07:09:02;14.20;99.90
25074;DHT22;13066;52.042;5.648;2022-10-16T07:11:30;14.20;99.90
25074;DHT22;13066;52.042;5.648;2022-10-16T07:14:00;14.20;99.90
25074;DHT22;13066;52.042;5.648;2022-10-16T07:16:29;14.20;99.90
25074;DHT22;13066;52.042;5.648;2022-10-16T07:18:59;14.20;99.90
25074;DHT22;13066;52.042;5.648;2022-10-16T07:21:29;14.20;99.90
25074;DHT22;13066;52.042;5.648;2022-10-16T07:23:59;14.30;99.90
25074;DHT22;13066;52.042;5.648;2022-10-16T07:26:29;14.30;99.90
25074;DHT22;13066;52.042;5.648;2022-10-16T07:28:59;14.30;99.90
25074;DHT22;13066;52.042;5.648;2022-10-16T07:31:28;14.40;99.90
25074;DHT22;13066;52.042;5.648;2022-10-16T07:33:57;14.40;99.90
25074;DHT22;13066;52.042;5.648;2022-10-16T07:36:26;14.40;99.90
25074;DHT22;13066;52.042;5.648;2022-10-16T07:38:55;14.40;99.90
25074;DHT22;13066;52.042;5.648;2022-10-16T07:41:26;14.50;99.90
25074;DHT22;13066;52.042;5.648;2022-10-16T07:43:55;14.50;99.90
25074;DHT22;13066;52.042;5.648;2022-10-16T07:46:26;14.50;99.90
25074;DHT22;13066;52.042;5.648;2022-10-16T07:48:54;14.50;99.90
25074;DHT22;13066;52.042;5.648;2022-10-16T07:51:24;14.60;99.90
25074;DHT22;13066;52.042;5.648;2022-10-16T07:53:53;14.60;99.90
25074;DHT22;13066;52.042;5.648;2022-10-16T07:56:21;14.60;99.90
25074;DHT22;13066;52.042;5.648;2022-10-16T07:58:50;14.60;99.90
25074;DHT22;13066;52.042;5.648;2022-10-16T08:01:18;14.70;99.90
25074;DHT22;13066;52.042;5.648;2022-10-16T08:03:50;14.70;99.90
25074;DHT22;13066;52.042;5.648;2022-10-16T08:06:19;14.80;99.90
25074;DHT22;13066;52.042;5.648;2022-10-16T08:08:54;14.80;99.90
25074;DHT22;13066;52.042;5.648;2022-10-16T08:11:22;14.80;99.90
25074;DHT22;13066;52.042;5.648;2022-10-16T08:13:50;14.80;99.90
25074;DHT22;13066;52.042;5.648;2022-10-16T08:16:17;14.80;99.90
25074;DHT22;13066;52.042;5.648;2022-10-16T08:18:47;14.80;99.90
25074;DHT22;13066;52.042;5.648;2022-10-16T08:21:20;14.80;99.90
25074;DHT22;13066;52.042;5.648;2022-10-16T08:23:49;14.80;99.90
25074;DHT22;13066;52.042;5.648;2022-10-16T08:26:24;14.80;99.90
25074;DHT22;13066;52.042;5.648;2022-10-16T08:28:52;14.80;99.90
25074;DHT22;13066;52.042;5.648;2022-10-16T08:31:21;14.80;99.90
25074;DHT22;13066;52.042;5.648;2022-10-16T08:33:51;14.80;99.90
25074;DHT22;13066;52.042;5.648;2022-10-16T08:36:19;14.80;99.90
25074;DHT22;13066;52.042;5.648;2022-10-16T08:38:48;14.80;99.90
25074;DHT22;13066;52.042;5.648;2022-10-16T08:41:46;14.80;99.90
25074;DHT22;13066;52.042;5.648;2022-10-16T08:44:32;14.90;99.90
25074;DHT22;13066;52.042;5.648;2022-10-16T08:47:04;14.90;99.90
25074;DHT22;13066;52.042;5.648;2022-10-16T08:49:36;14.90;99.90
25074;DHT22;13066;52.042;5.648;2022-10-16T08:52:10;14.80;99.90
25074;DHT22;13066;52.042;5.648;2022-10-16T08:54:42;14.90;99.90
25074;DHT22;13066;52.042;5.648;2022-10-16T08:57:13;14.90;99.90
25074;DHT22;13066;52.042;5.648;2022-10-16T08:59:49;15.00;99.90
25074;DHT22;13066;52.042;5.648;2022-10-16T09:02:24;15.00;99.90
25074;DHT22;13066;52.042;5.648;2022-10-16T09:08:01;15.00;99.90
25074;DHT22;13066;52.042;5.648;2022-10-16T09:10:44;15.10;99.90
25074;DHT22;13066;52.042;5.648;2022-10-16T09:13:19;15.10;99.90
25074;DHT22;13066;52.042;5.648;2022-10-16T09:15:55;15.20;99.90
25074;DHT22;13066;52.042;5.648;2022-10-16T09:18:29;15.20;99.90
25074;DHT22;13066;52.042;5.648;2022-10-16T09:21:09;15.20;99.90
25074;DHT22;13066;52.042;5.648;2022-10-16T09:23:40;15.30;99.90
25074;DHT22;13066;52.042;5.648;2022-10-16T09:26:11;15.30;99.90
25074;DHT22;13066;52.042;5.648;2022-10-16T09:28:40;15.40;99.90
25074;DHT22;13066;52.042;5.648;2022-10-16T09:31:15;15.40;99.90
25074;DHT22;13066;52.042;5.648;2022-10-16T09:33:47;15.50;99.90
25074;DHT22;13066;52.042;5.648;2022-10-16T09:36:17;15.50;99.90
25074;DHT22;13066;52.042;5.648;2022-10-16T09:38:46;15.60;99.90
25074;DHT22;13066;52.042;5.648;2022-10-16T09:41:17;15.60;99.90
25074;DHT22;13066;52.042;5.648;2022-10-16T09:43:49;15.70;99.90
25074;DHT22;13066;52.042;5.648;2022-10-16T09:46:26;15.80;99.90
25074;DHT22;13066;52.042;5.648;2022-10-16T09:48:56;15.80;99.90
25074;DHT22;13066;52.042;5.648;2022-10-16T09:51:27;15.90;99.90
25074;DHT22;13066;52.042;5.648;2022-10-16T09:53:58;15.90;99.90
25074;DHT22;13066;52.042;5.648;2022-10-16T09:56:28;15.90;99.90
25074;DHT22;13066;52.042;5.648;2022-10-16T09:58:57;16.00;99.90
25074;DHT22;13066;52.042;5.648;2022-10-16T10:01:31;16.00;99.90
25074;DHT22;13066;52.042;5.648;2022-10-16T10:04:03;16.10;99.90
25074;DHT22;13066;52.042;5.648;2022-10-16T10:06:34;16.10;99.90
25074;DHT22;13066;52.042;5.648;2022-10-16T10:09:14;16.20;99.90
25074;DHT22;13066;52.042;5.648;2022-10-16T10:11:47;16.20;99.90
25074;DHT22;13066;52.042;5.648;2022-10-16T10:14:24;16.20;99.90
25074;DHT22;13066;52.042;5.648;2022-10-16T10:17:07;16.30;99.90
25074;DHT22;13066;52.042;5.648;2022-10-16T10:19:40;16.30;99.90
25074;DHT22;13066;52.042;5.648;2022-10-16T10:22:25;16.40;99.90
25074;DHT22;13066;52.042;5.648;2022-10-16T10:25:12;16.40;99.90
25074;DHT22;13066;52.042;5.648;2022-10-16T10:27:56;16.50;99.90
25074;DHT22;13066;52.042;5.648;2022-10-16T10:30:29;16.60;99.90
25074;DHT22;13066;52.042;5.648;2022-10-16T10:33:13;16.60;99.90
25074;DHT22;13066;52.042;5.648;2022-10-16T10:35:51;16.70;99.90
25074;DHT22;13066;52.042;5.648;2022-10-16T10:38:34;16.80;99.90
25074;DHT22;13066;52.042;5.648;2022-10-16T10:41:26;16.90;99.90
25074;DHT22;13066;52.042;5.648;2022-10-16T10:44:05;17.00;99.90
25074;DHT22;13066;52.042;5.648;2022-10-16T10:46:41;17.10;99.90
25074;DHT22;13066;52.042;5.648;2022-10-16T10:49:31;17.20;99.90
25074;DHT22;13066;52.042;5.648;2022-10-16T10:52:13;17.20;99.90
25074;DHT22;13066;52.042;5.648;2022-10-16T10:54:51;17.30;99.90
25074;DHT22;13066;52.042;5.648;2022-10-16T10:57:32;17.40;99.90
25074;DHT22;13066;52.042;5.648;2022-10-16T11:00:16;17.40;99.90
25074;DHT22;13066;52.042;5.648;2022-10-16T11:02:50;17.50;99.90
25074;DHT22;13066;52.042;5.648;2022-10-16T11:05:41;17.50;99.90
25074;DHT22;13066;52.042;5.648;2022-10-16T11:08:13;17.60;99.90
25074;DHT22;13066;52.042;5.648;2022-10-16T11:10:50;17.70;99.90
25074;DHT22;13066;52.042;5.648;2022-10-16T11:13:26;17.70;99.90
25074;DHT22;13066;52.042;5.648;2022-10-16T11:15:58;17.70;99.90
25074;DHT22;13066;52.042;5.648;2022-10-16T11:18:33;17.70;99.90
25074;DHT22;13066;52.042;5.648;2022-10-16T11:21:07;17.70;99.90
25074;DHT22;13066;52.042;5.648;2022-10-16T11:23:40;17.70;99.90
25074;DHT22;13066;52.042;5.648;2022-10-16T11:26:16;17.70;99.70
25074;DHT22;13066;52.042;5.648;2022-10-16T11:28:47;17.70;99.40
25074;DHT22;13066;52.042;5.648;2022-10-16T11:31:18;17.80;99.30
25074;DHT22;13066;52.042;5.648;2022-10-16T11:33:51;17.80;99.30
25074;DHT22;13066;52.042;5.648;2022-10-16T11:36:25;17.80;99.20
25074;DHT22;13066;52.042;5.648;2022-10-16T11:39:00;17.80;98.80
25074;DHT22;13066;52.042;5.648;2022-10-16T11:41:35;17.80;98.60
25074;DHT22;13066;52.042;5.648;2022-10-16T11:44:16;17.70;98.00
25074;DHT22;13066;52.042;5.648;2022-10-16T11:46:52;17.70;97.90
25074;DHT22;13066;52.042;5.648;2022-10-16T11:49:36;17.70;98.00
25074;DHT22;13066;52.042;5.648;2022-10-16T11:52:10;17.60;98.00
25074;DHT22;13066;52.042;5.648;2022-10-16T11:54:49;17.60;98.00
25074;DHT22;13066;52.042;5.648;2022-10-16T11:57:22;17.60;98.00
25074;DHT22;13066;52.042;5.648;2022-10-16T11:59:54;17.60;97.90
25074;DHT22;13066;52.042;5.648;2022-10-16T12:02:38;17.70;98.00
25074;DHT22;13066;52.042;5.648;2022-10-16T12:05:25;17.80;97.90
25074;DHT22;13066;52.042;5.648;2022-10-16T12:08:04;17.90;97.70
25074;DHT22;13066;52.042;5.648;2022-10-16T12:10:34;17.90;97.70
25074;DHT22;13066;52.042;5.648;2022-10-16T12:13:30;18.00;97.00
25074;DHT22;13066;52.042;5.648;2022-10-16T12:16:22;18.10;96.70
25074;DHT22;13066;52.042;5.648;2022-10-16T12:18:50;18.10;96.50
25074;DHT22;13066;52.042;5.648;2022-10-16T12:21:30;18.20;96.00
25074;DHT22;13066;52.042;5.648;2022-10-16T12:24:00;18.20;95.90
25074;DHT22;13066;52.042;5.648;2022-10-16T12:26:32;18.20;95.80
25074;DHT22;13066;52.042;5.648;2022-10-16T12:29:14;18.30;95.90
25074;DHT22;13066;52.042;5.648;2022-10-16T12:31:45;18.30;96.10
25074;DHT22;13066;52.042;5.648;2022-10-16T12:34:27;18.30;96.20
25074;DHT22;13066;52.042;5.648;2022-10-16T12:36:56;18.40;96.20
25074;DHT22;13066;52.042;5.648;2022-10-16T12:39:35;18.40;95.70
25074;DHT22;13066;52.042;5.648;2022-10-16T12:42:18;18.40;95.40
25074;DHT22;13066;52.042;5.648;2022-10-16T12:44:48;18.50;95.40
25074;DHT22;13066;52.042;5.648;2022-10-16T12:47:21;18.50;95.40
25074;DHT22;13066;52.042;5.648;2022-10-16T12:49:51;18.50;95.10
25074;DHT22;13066;52.042;5.648;2022-10-16T12:52:27;18.50;95.10
25074;DHT22;13066;52.042;5.648;2022-10-16T12:54:57;18.50;95.00
25074;DHT22;13066;52.042;5.648;2022-10-16T12:57:40;18.40;95.00
25074;DHT22;13066;52.042;5.648;2022-10-16T13:00:18;18.40;94.90
25074;DHT22;13066;52.042;5.648;2022-10-16T13:03:04;18.40;94.90
25074;DHT22;13066;52.042;5.648;2022-10-16T13:05:49;18.40;94.70
25074;DHT22;13066;52.042;5.648;2022-10-16T13:08:33;18.40;94.60
25074;DHT22;13066;52.042;5.648;2022-10-16T13:11:05;18.40;94.80
25074;DHT22;13066;52.042;5.648;2022-10-16T13:13:49;18.40;94.90
25074;DHT22;13066;52.042;5.648;2022-10-16T13:16:26;18.40;94.90
25074;DHT22;13066;52.042;5.648;2022-10-16T13:19:06;18.30;94.80
25074;DHT22;13066;52.042;5.648;2022-10-16T13:21:46;18.30;95.10
25074;DHT22;13066;52.042;5.648;2022-10-16T13:24:24;18.30;95.30
25074;DHT22;13066;52.042;5.648;2022-10-16T13:26:59;18.40;95.30
25074;DHT22;13066;52.042;5.648;2022-10-16T13:29:32;18.40;94.80
25074;DHT22;13066;52.042;5.648;2022-10-16T13:32:07;18.40;94.50
25074;DHT22;13066;52.042;5.648;2022-10-16T13:34:43;18.40;94.00
25074;DHT22;13066;52.042;5.648;2022-10-16T13:37:17;18.40;93.50
25074;DHT22;13066;52.042;5.648;2022-10-16T13:39:46;18.40;93.50
25074;DHT22;13066;52.042;5.648;2022-10-16T13:42:20;18.40;93.40
25074;DHT22;13066;52.042;5.648;2022-10-16T13:44:55;18.40;93.50
25074;DHT22;13066;52.042;5.648;2022-10-16T13:47:27;18.40;93.50
25074;DHT22;13066;52.042;5.648;2022-10-16T13:50:00;18.40;93.30
25074;DHT22;13066;52.042;5.648;2022-10-16T13:52:28;18.50;93.40
25074;DHT22;13066;52.042;5.648;2022-10-16T13:54:56;18.50;93.40
25074;DHT22;13066;52.042;5.648;2022-10-16T13:57:28;18.50;93.50
25074;DHT22;13066;52.042;5.648;2022-10-16T13:59:56;18.60;93.60
25074;DHT22;13066;52.042;5.648;2022-10-16T14:02:28;18.60;93.80
25074;DHT22;13066;52.042;5.648;2022-10-16T14:04:57;18.60;93.90
25074;DHT22;13066;52.042;5.648;2022-10-16T14:07:27;18.60;94.00
25074;DHT22;13066;52.042;5.648;2022-10-16T14:09:58;18.60;93.70
25074;DHT22;13066;52.042;5.648;2022-10-16T14:12:27;18.70;93.60
25074;DHT22;13066;52.042;5.648;2022-10-16T14:14:57;18.70;93.70
25074;DHT22;13066;52.042;5.648;2022-10-16T14:17:29;18.70;93.70
25074;DHT22;13066;52.042;5.648;2022-10-16T14:19:59;18.70;93.60
25074;DHT22;13066;52.042;5.648;2022-10-16T14:22:32;18.70;93.60
25074;DHT22;13066;52.042;5.648;2022-10-16T14:25:01;18.70;93.70
25074;DHT22;13066;52.042;5.648;2022-10-16T14:27:31;18.70;93.80
25074;DHT22;13066;52.042;5.648;2022-10-16T14:30:14;18.80;93.80
25074;DHT22;13066;52.042;5.648;2022-10-16T14:32:54;18.80;93.80
25074;DHT22;13066;52.042;5.648;2022-10-16T14:35:25;18.80;94.20
25074;DHT22;13066;52.042;5.648;2022-10-16T14:37:53;18.80;93.90
25074;DHT22;13066;52.042;5.648;2022-10-16T14:40:24;18.80;94.00
25074;DHT22;13066;52.042;5.648;2022-10-16T14:42:53;18.80;94.30
25074;DHT22;13066;52.042;5.648;2022-10-16T14:45:23;18.80;94.40
25074;DHT22;13066;52.042;5.648;2022-10-16T14:47:54;18.80;94.40
25074;DHT22;13066;52.042;5.648;2022-10-16T14:50:24;18.90;94.50
25074;DHT22;13066;52.042;5.648;2022-10-16T14:52:52;18.80;94.50
25074;DHT22;13066;52.042;5.648;2022-10-16T14:55:20;18.80;94.50
25074;DHT22;13066;52.042;5.648;2022-10-16T14:57:51;18.80;94.60
25074;DHT22;13066;52.042;5.648;2022-10-16T15:00:26;18.80;94.60
25074;DHT22;13066;52.042;5.648;2022-10-16T15:02:55;18.80;94.70
25074;DHT22;13066;52.042;5.648;2022-10-16T15:05:25;18.80;94.80
25074;DHT22;13066;52.042;5.648;2022-10-16T15:07:54;18.80;94.80
25074;DHT22;13066;52.042;5.648;2022-10-16T15:10:24;18.80;94.90
25074;DHT22;13066;52.042;5.648;2022-10-16T15:12:52;18.80;95.10
25074;DHT22;13066;52.042;5.648;2022-10-16T15:15:34;18.70;95.30
25074;DHT22;13066;52.042;5.648;2022-10-16T15:18:05;18.80;95.40
25074;DHT22;13066;52.042;5.648;2022-10-16T15:20:34;18.70;95.50
25074;DHT22;13066;52.042;5.648;2022-10-16T15:23:03;18.70;95.60
25074;DHT22;13066;52.042;5.648;2022-10-16T15:25:35;18.70;95.50
25074;DHT22;13066;52.042;5.648;2022-10-16T15:28:04;18.70;95.50
25074;DHT22;13066;52.042;5.648;2022-10-16T15:30:33;18.70;95.50
25074;DHT22;13066;52.042;5.648;2022-10-16T15:33:02;18.70;95.60
25074;DHT22;13066;52.042;5.648;2022-10-16T15:35:31;18.70;95.80
25074;DHT22;13066;52.042;5.648;2022-10-16T15:37:59;18.70;95.90
25074;DHT22;13066;52.042;5.648;2022-10-16T15:40:27;18.70;96.10
25074;DHT22;13066;52.042;5.648;2022-10-16T15:42:56;18.60;96.20
25074;DHT22;13066;52.042;5.648;2022-10-16T15:45:23;18.60;96.40
25074;DHT22;13066;52.042;5.648;2022-10-16T15:47:51;18.60;96.60
25074;DHT22;13066;52.042;5.648;2022-10-16T15:50:19;18.50;96.80
25074;DHT22;13066;52.042;5.648;2022-10-16T15:52:49;18.50;97.00
25074;DHT22;13066;52.042;5.648;2022-10-16T15:55:18;18.40;97.20
25074;DHT22;13066;52.042;5.648;2022-10-16T15:57:46;18.40;97.50
25074;DHT22;13066;52.042;5.648;2022-10-16T16:00:16;18.30;97.60
25074;DHT22;13066;52.042;5.648;2022-10-16T16:02:50;18.30;97.80